Airfield :
LOGIN :

Register | Disclaimer

   EN    FR    IT 

 










Legend :    VFR   Marginal VFR   IFR   Intensive IFR   Very Intensive IFR
Visi :
Ceiling :
>= 8 km
>= 3000ft
5 to 8 km
1000 to 3000 ft
1500m to 5 km
500 to 1000 ft
800 to 1500m
200 to 500 ft
< 800m
< 200 ft
Symbols :   Thunderstorms  Fog  Heavy snow  Heavy precipitations  Wind > 20 kt
SIGMETs :     Misc.  Thunderstorms  Icing  Turbulence  Mountain Waves  Volcanic Ashes






- Airport Elevation : 463 ft
- IATA code : SZY
- AIRPORT CLOSED.


EPSY - Szczytno

CURRENT METAR :
  • 260230Z 21005KT 1300 R01/P2000N BR NSC M04/M05 Q1019

EXPIRED METARs :
  • 260200Z 21006KT 1600 BR SCT002 M04/M04 Q1019
  • 260130Z 20004KT 1200 R01/P2000N BR NSC M05/M05 Q1019
  • 260100Z 18004KT 0100 R01/0400D FZFG NSC M06/M06 Q1019
  • 260030Z 19002KT 0100 R01/0500N FZFG NSC M05/M05 Q1020
  • 260000Z VRB02KT 0100 R01/0375D FZFG NSC M05/M06 Q1020

TAF TAF EPSY
Valid from the 26 at 03:00 until the 26 at 12:00 UTC


260230Z 2603/2612 21006KT 2500 BR NSC
TEMPO 2603/2609 1200 BR BKN003
PROB40
TEMPO 2603/2608 0700 FZFG OVC002
PROB30
TEMPO 2603/2607 0300 FZFG OVC001
BECMG 2609/2612 6000 NSW BKN012



MET'MAP, your aeronautical weather chart ! - Copyright ORBIFLY December 2007 - Disclaimer

ORBIFLY MET'MAP TEAM :

Programming & Development : Alexandra Zaïnal
Concept & original design : Baudouin d'Aumeries
Assistance for programming : Marc-Olivier Méhu
Technical & hardware support : Manuel Goepfert

Contact : metmap@orbifly.com




SOURCES & CREDITS :

   NOAA